This is the latest recevied weather packets stored in our database for station/object W0NKY-13. If no packets are shown the sender has not sent any weather packets the latest 10 day(s).
| Time | Temp. | Humidity | Pressure | Rain* | Wind** | Luminosity | Snow |
|---|---|---|---|---|---|---|---|
| 1777293320 | 12.78° C | 84% | 1018.2 hPa | 0 mm | - | 43 W/m² | - |
| 1777287919 | 7.22° C | 94% | 1018.4 hPa | 0 mm | - | 5 W/m² | - |
| 1777280717 | 7.22° C | 94% | 1019.1 hPa | 0 mm | - | 0 W/m² | - |
| 1777275919 | 8.33° C | 94% | 1018.9 hPa | 0 mm | - | 0 W/m² | - |
| 1777272939 | 7.78° C | 93% | 1018.7 hPa | 0 mm | - | 0 W/m² | - |
| 1777271739 | 8.33° C | 93% | 1018.6 hPa | 0 mm | - | 0 W/m² | - |
| 1777271139 | 8.89° C | 93% | 1018.7 hPa | 0 mm | - | 0 W/m² | - |
| 1777265718 | 10° C | 89% | 1019.3 hPa | 0 mm | - | 0 W/m² | - |
| 1777265118 | 10.56° C | 88% | 1019.4 hPa | 0 mm | - | 0 W/m² | - |
| 1777263318 | 11.67° C | 84% | 1019.5 hPa | 0 mm | - | 0 W/m² | - |
| 1777262159 | 12.22° C | 81% | 1019.4 hPa | 0 mm | - | 0 W/m² | - |
| 1777261519 | 12.22° C | 81% | 1019.4 hPa | 0 mm | - | 0 W/m² | - |
| 1777260319 | 12.78° C | 81% | 1019.1 hPa | 0 mm | - | 0 W/m² | - |
| 1777259719 | 12.22° C | 82% | 1018.9 hPa | 0 mm | - | 0 W/m² | - |
| 1777256117 | 11.11° C | 88% | 1018.8 hPa | 0 mm | - | 0 W/m² | - |
| 1777255517 | 11.11° C | 88% | 1018.7 hPa | 0 mm | - | 0 W/m² | - |
| 1777253737 | 11.67° C | 85% | 1018.5 hPa | 0 mm | - | 0 W/m² | - |
| 1777251938 | 12.78° C | 79% | 1018.2 hPa | 0 mm | - | 0 W/m² | - |
| 1777239918 | 20° C | 59% | 1018.4 hPa | 0 mm | - | 790 W/m² | - |
| 1777238118 | 20° C | 61% | 1018.5 hPa | 0 mm | - | 760 W/m² | - |
| 1777235739 | 19.44° C | 61% | 1018.5 hPa | 0 mm | - | 663 W/m² | - |
| 1777235118 | 20° C | 59% | 1018.6 hPa | 0 mm | - | 623 W/m² | - |
| 1777232719 | 20° C | 59% | 1018.9 hPa | 0 mm | - | 400 W/m² | - |
| 1777229716 | 20.56° C | 56% | 1019.4 hPa | 0 mm | - | 289 W/m² | - |
| 1777227317 | 18.89° C | 60% | 1019.7 hPa | 0 mm | - | 159 W/m² | - |
* Rain latest hour (hover to see other rain measurements)
** Current wind speed in m/s (hover to see current wind gust speed)